Time;durP1;ratioP1;P1;durP2;ratioP2;P2;SDS_P1;SDS_P2;PMS_P1;PMS_P2;Temp;Humidity;BMP_temperature;BMP_pressure;BME280_temperature;BME280_humidity;BME280_pressure;Samples;Min_cycle;Max_cycle;Signal;HPM_P1;HPM_P2
2023/12/13 05:07:14;;;;;;;0.30;0.30;;;7.90;99.90;;;;;;4970159;23;20268;-67
2023/12/13 05:09:39;;;;;;;0.30;0.30;;;7.90;99.90;;;;;;4936296;29;20229;-65
2023/12/13 05:12:05;;;;;;;0.40;0.40;;;7.90;99.90;;;;;;4919194;29;20177;-63
2023/12/13 05:14:31;;;;;;;0.30;0.30;;;7.90;99.90;;;;;;4936151;29;20177;-66
2023/12/13 05:16:56;;;;;;;0.40;0.40;;;7.90;99.90;;;;;;4918758;29;20418;-64
2023/12/13 05:19:22;;;;;;;0.20;0.20;;;7.90;99.90;;;;;;4917538;29;20234;-66
2023/12/13 05:21:48;;;;;;;0.30;0.30;;;7.90;99.90;;;;;;4900432;29;20268;-65
2023/12/13 05:24:13;;;;;;;0.40;0.40;;;7.90;99.90;;;;;;4916854;29;20178;-65
2023/12/13 05:26:39;;;;;;;0.40;0.40;;;8.00;99.90;;;;;;4917286;29;20190;-64
2023/12/13 05:29:05;;;;;;;0.33;0.33;;;8.00;99.90;;;;;;4917345;29;20181;-64
2023/12/13 05:31:30;;;;;;;0.30;0.30;;;8.00;99.90;;;;;;4900218;29;20222;-65
2023/12/13 05:33:56;;;;;;;0.30;0.30;;;8.00;99.90;;;;;;4917276;29;20174;-66
2023/12/13 05:36:22;;;;;;;0.30;0.30;;;8.00;99.90;;;;;;4915734;29;20193;-65
2023/12/13 05:38:48;;;;;;;0.30;0.30;;;8.00;99.90;;;;;;4917085;29;20179;-66
2023/12/13 05:41:13;;;;;;;0.30;0.30;;;8.00;99.90;;;;;;4917087;29;20194;-66
2023/12/13 05:43:39;;;;;;;0.20;0.20;;;8.00;99.90;;;;;;4917302;29;20178;-65
2023/12/13 05:46:06;;;;;;;0.30;0.30;;;8.00;99.90;;;;;;4916533;29;20568;-64
2023/12/13 05:48:32;;;;;;;0.30;0.30;;;8.00;99.90;;;;;;4917187;29;20245;-67
2023/12/13 05:50:58;;;;;;;0.30;0.30;;;8.00;99.90;;;;;;4917000;29;20206;-66
2023/12/13 05:53:24;;;;;;;0.30;0.30;;;7.90;99.90;;;;;;4917169;29;20478;-64
2023/12/13 05:55:50;;;;;;;0.30;0.30;;;7.80;99.90;;;;;;4916832;29;20198;-65
2023/12/13 05:58:16;;;;;;;0.30;0.30;;;7.80;99.90;;;;;;4917236;29;20186;-66
2023/12/13 06:00:41;;;;;;;0.30;0.30;;;7.70;99.90;;;;;;4916683;29;20418;-66
2023/12/13 06:03:07;;;;;;;0.30;0.30;;;7.70;99.90;;;;;;4916919;29;20193;-65
2023/12/13 06:05:33;;;;;;;0.30;0.30;;;7.70;99.90;;;;;;4916273;29;20652;-65
2023/12/13 06:07:58;;;;;;;0.30;0.30;;;7.70;99.90;;;;;;4899903;29;20209;-65
2023/12/13 06:10:24;;;;;;;0.40;0.40;;;7.70;99.90;;;;;;4916735;29;20205;-66
2023/12/13 06:12:52;;;;;;;0.20;0.20;;;7.80;99.90;;;;;;4917933;29;20166;-66
2023/12/13 06:15:24;;;;;;;0.35;0.35;;;7.80;99.90;;;;;;4920588;29;20536;-66
2023/12/13 06:17:49;;;;;;;0.30;0.30;;;7.80;99.90;;;;;;4905029;29;20174;-67
2023/12/13 06:20:15;;;;;;;0.30;0.30;;;7.80;99.90;;;;;;4916964;29;20189;-67
2023/12/13 06:22:41;;;;;;;0.30;0.30;;;7.80;99.90;;;;;;4916867;29;20896;-66
2023/12/13 06:25:07;;;;;;;0.30;0.30;;;7.80;99.90;;;;;;4916221;29;20194;-64
2023/12/13 06:27:33;;;;;;;0.40;0.40;;;7.80;99.90;;;;;;4916388;29;20366;-64
2023/12/13 06:29:59;;;;;;;0.40;0.40;;;7.80;99.90;;;;;;4919308;29;20209;-65
2023/12/13 06:32:24;;;;;;;0.30;0.30;;;7.80;99.90;;;;;;4931795;29;20969;-67
2023/12/13 06:34:50;;;;;;;0.30;0.30;;;7.80;99.90;;;;;;4932611;29;20723;-65
2023/12/13 06:37:16;;;;;;;0.30;0.30;;;7.80;99.90;;;;;;4916425;29;20233;-67
2023/12/13 06:39:42;;;;;;;0.40;0.40;;;7.90;99.90;;;;;;4902949;29;20179;-65
2023/12/13 06:42:10;;;;;;;0.30;0.30;;;7.90;99.90;;;;;;4920016;29;20174;-69
2023/12/13 06:44:40;;;;;;;0.45;0.45;;;8.00;99.90;;;;;;4919406;29;20248;-65
2023/12/13 06:47:06;;;;;;;0.20;0.20;;;8.00;99.90;;;;;;4922556;29;20640;-66
2023/12/13 06:49:34;;;;;;;0.20;0.20;;;8.10;99.90;;;;;;4938730;29;20182;-68
2023/12/13 06:52:00;;;;;;;0.30;0.30;;;8.10;99.90;;;;;;4935922;29;20577;-67
2023/12/13 06:54:26;;;;;;;0.30;0.30;;;8.20;99.90;;;;;;4919720;29;20283;-68
2023/12/13 06:56:51;;;;;;;0.30;0.30;;;8.30;99.90;;;;;;4902715;29;20651;-67
2023/12/13 06:59:17;;;;;;;0.30;0.30;;;8.40;99.90;;;;;;4909509;29;20835;-67
2023/12/13 07:01:43;;;;;;;0.30;0.30;;;8.50;99.90;;;;;;4924562;29;20254;-66
2023/12/13 07:04:09;;;;;;;0.30;0.30;;;8.50;99.90;;;;;;4926372;29;20362;-66
2023/12/13 07:06:35;;;;;;;0.30;0.30;;;8.60;99.90;;;;;;4938439;29;20205;-64
2023/12/13 07:09:02;;;;;;;0.30;0.30;;;8.70;99.90;;;;;;4916188;29;20189;-65
2023/12/13 07:11:27;;;;;;;0.30;0.30;;;8.70;99.90;;;;;;4919132;29;20205;-64
2023/12/13 07:13:53;;;;;;;0.20;0.20;;;8.70;99.90;;;;;;4924342;29;20189;-66
2023/12/13 07:16:18;;;;;;;0.30;0.30;;;8.70;99.90;;;;;;4935895;29;20552;-66
2023/12/13 07:18:45;;;;;;;0.30;0.30;;;8.80;99.90;;;;;;4936350;29;20205;-66
2023/12/13 07:21:10;;;;;;;0.30;0.30;;;8.80;99.90;;;;;;4936367;29;20229;-66
2023/12/13 07:23:36;;;;;;;0.20;0.20;;;8.80;99.90;;;;;;4936475;29;20178;-66
2023/12/13 07:26:03;;;;;;;0.30;0.30;;;8.80;99.90;;;;;;4935566;29;20205;-66
2023/12/13 07:28:29;;;;;;;0.20;0.20;;;8.90;99.90;;;;;;4935819;29;20441;-66
2023/12/13 07:30:55;;;;;;;0.30;0.30;;;8.90;99.90;;;;;;4936198;29;20217;-66
2023/12/13 07:33:20;;;;;;;0.30;0.30;;;8.90;99.90;;;;;;4936340;29;20170;-65
2023/12/13 07:35:47;;;;;;;0.30;0.30;;;9.00;99.90;;;;;;4935876;29;20193;-64
2023/12/13 07:38:14;;;;;;;0.20;0.20;;;9.00;99.90;;;;;;4936294;29;20173;-66
2023/12/13 07:40:40;;;;;;;0.20;0.20;;;9.10;99.90;;;;;;4918167;29;20174;-65
2023/12/13 07:43:06;;;;;;;0.30;0.30;;;9.10;99.90;;;;;;4919216;29;20178;-64
2023/12/13 07:45:32;;;;;;;0.37;0.37;;;9.10;99.90;;;;;;4901777;29;20202;-65
2023/12/13 07:47:57;;;;;;;0.30;0.30;;;9.20;99.90;;;;;;4919399;29;20174;-66
2023/12/13 07:50:23;;;;;;;0.30;0.30;;;9.20;99.90;;;;;;4917837;29;20214;-64
2023/12/13 07:52:48;;;;;;;0.30;0.30;;;9.20;99.90;;;;;;4921606;29;20182;-65
2023/12/13 07:55:18;;;;;;;0.30;0.30;;;9.20;99.90;;;;;;4937484;29;20218;-64
2023/12/13 07:57:44;;;;;;;0.30;0.30;;;9.20;99.90;;;;;;4937875;29;20185;-65
2023/12/13 08:00:11;;;;;;;0.30;0.30;;;9.30;99.90;;;;;;4937606;29;20181;-65
2023/12/13 08:02:36;;;;;;;0.40;0.40;;;9.30;99.90;;;;;;4937896;29;20182;-66
2023/12/13 08:05:02;;;;;;;0.30;0.30;;;9.30;99.90;;;;;;4930257;29;20184;-64
2023/12/13 08:07:27;;;;;;;0.30;0.30;;;9.30;99.90;;;;;;4918694;29;20275;-66
2023/12/13 08:09:54;;;;;;;0.30;0.30;;;9.30;99.90;;;;;;4918600;29;20206;-63
2023/12/13 08:12:20;;;;;;;0.30;0.30;;;9.30;99.90;;;;;;4918625;29;20202;-65
2023/12/13 08:14:45;;;;;;;0.40;0.40;;;9.30;99.90;;;;;;4918061;29;20677;-64
2023/12/13 08:17:12;;;;;;;0.30;0.30;;;9.30;99.90;;;;;;4918583;29;20229;-66
2023/12/13 08:19:37;;;;;;;0.30;0.30;;;9.30;99.90;;;;;;4924030;29;20209;-65
2023/12/13 08:22:03;;;;;;;0.30;0.30;;;9.30;99.90;;;;;;4937426;29;20174;-65
2023/12/13 08:24:29;;;;;;;0.30;0.30;;;9.30;99.90;;;;;;4936920;29;20256;-65
2023/12/13 08:26:55;;;;;;;0.30;0.30;;;9.30;99.90;;;;;;4937293;29;20193;-65
2023/12/13 08:29:21;;;;;;;0.30;0.30;;;9.40;99.90;;;;;;4937306;29;20700;-65
2023/12/13 08:31:46;;;;;;;0.30;0.30;;;9.40;99.90;;;;;;4920033;29;20185;-66
2023/12/13 08:34:12;;;;;;;0.30;0.30;;;9.30;99.90;;;;;;4915420;29;20209;-65
2023/12/13 08:36:38;;;;;;;0.30;0.30;;;9.40;99.90;;;;;;4901413;29;20202;-63
2023/12/13 08:39:03;;;;;;;0.37;0.37;;;9.40;99.90;;;;;;4917970;29;20185;-65
2023/12/13 08:41:29;;;;;;;0.30;0.30;;;9.30;99.90;;;;;;4918165;29;20182;-66
2023/12/13 08:43:55;;;;;;;0.30;0.30;;;9.30;99.90;;;;;;4917912;29;20186;-67
2023/12/13 08:46:20;;;;;;;0.30;0.30;;;9.30;99.90;;;;;;4917812;29;20194;-66
2023/12/13 08:48:46;;;;;;;0.20;0.20;;;9.30;99.90;;;;;;4936209;29;20186;-66
2023/12/13 08:51:11;;;;;;;0.30;0.30;;;9.30;99.90;;;;;;4936955;29;20668;-65
2023/12/13 08:53:37;;;;;;;0.30;0.30;;;9.30;99.90;;;;;;4936825;29;20248;-64
2023/12/13 08:56:03;;;;;;;0.30;0.30;;;9.30;99.90;;;;;;4936569;29;20201;-65
2023/12/13 08:58:28;;;;;;;0.20;0.20;;;9.30;99.90;;;;;;4936594;29;20173;-65
2023/12/13 09:00:54;;;;;;;0.30;0.30;;;9.40;99.90;;;;;;4936478;29;20404;-66
2023/12/13 09:03:20;;;;;;;0.20;0.20;;;9.40;99.90;;;;;;4919612;29;20183;-66
2023/12/13 09:05:45;;;;;;;0.30;0.30;;;9.40;99.90;;;;;;4917327;29;20198;-66
2023/12/13 09:08:11;;;;;;;0.30;0.30;;;9.40;99.90;;;;;;4917656;29;20193;-65
2023/12/13 09:10:36;;;;;;;0.30;0.30;;;9.40;99.90;;;;;;4900615;29;20208;-66
2023/12/13 09:13:02;;;;;;;0.30;0.30;;;9.40;99.90;;;;;;4917685;29;20712;-66
2023/12/13 09:15:28;;;;;;;0.30;0.30;;;9.50;99.90;;;;;;4900263;29;20218;-65
2023/12/13 09:17:54;;;;;;;0.30;0.30;;;9.60;99.90;;;;;;4932870;29;20643;-65
2023/12/13 09:20:19;;;;;;;0.40;0.40;;;9.60;99.90;;;;;;4936481;29;20489;-65
2023/12/13 09:22:45;;;;;;;0.30;0.30;;;9.70;99.90;;;;;;4936534;29;20171;-65
2023/12/13 09:25:17;;;;;;;0.30;0.20;;;9.80;99.90;;;;;;4935935;29;20215;-66
2023/12/13 09:27:43;;;;;;;0.30;0.30;;;9.90;99.90;;;;;;4936460;29;20190;-65
2023/12/13 09:30:09;;;;;;;0.30;0.20;;;10.10;99.90;;;;;;4936161;29;20249;-65
2023/12/13 09:32:35;;;;;;;0.30;0.30;;;10.10;99.90;;;;;;4921010;29;20179;-66
2023/12/13 09:35:01;;;;;;;0.30;0.30;;;10.20;99.90;;;;;;4916758;29;20182;-66
2023/12/13 09:37:27;;;;;;;1.00;1.00;;;10.30;99.90;;;;;;4931592;29;20182;-65
2023/12/13 09:39:53;;;;;;;0.30;0.30;;;10.30;99.90;;;;;;4936138;29;20408;-66
2023/12/13 09:42:18;;;;;;;0.30;0.30;;;10.40;99.90;;;;;;4919182;29;20477;-66
2023/12/13 09:44:48;;;;;;;0.30;0.20;;;10.40;99.90;;;;;;4929379;29;20261;-65
2023/12/13 09:47:16;;;;;;;0.30;0.30;;;10.40;99.90;;;;;;4917125;29;20183;-65
2023/12/13 09:49:42;;;;;;;0.30;0.20;;;10.40;99.90;;;;;;4917156;29;20214;-65
2023/12/13 09:52:09;;;;;;;0.30;0.30;;;10.40;99.90;;;;;;4917126;29;20200;-65
2023/12/13 09:54:40;;;;;;;0.30;0.30;;;10.40;99.90;;;;;;4916602;29;20702;-63
2023/12/13 09:57:06;;;;;;;0.40;0.40;;;10.40;99.90;;;;;;4916986;29;20208;-65
2023/12/13 09:59:32;;;;;;;0.30;0.30;;;10.40;99.90;;;;;;4908513;29;20445;-65
2023/12/13 10:01:57;;;;;;;0.30;0.20;;;10.40;99.90;;;;;;4935975;29;20175;-66
2023/12/13 10:04:27;;;;;;;0.30;0.30;;;10.50;99.90;;;;;;4935684;29;20262;-65
2023/12/13 10:06:54;;;;;;;0.40;0.40;;;10.50;99.90;;;;;;4935892;29;20243;-65
2023/12/13 10:09:19;;;;;;;0.30;0.30;;;10.60;99.90;;;;;;4903339;29;20470;-65
2023/12/13 10:11:45;;;;;;;0.30;0.30;;;10.60;99.90;;;;;;4935973;29;20490;-63
2023/12/13 10:14:11;;;;;;;0.30;0.30;;;10.60;99.90;;;;;;4933014;29;20264;-64
2023/12/13 10:16:40;;;;;;;0.30;0.30;;;10.60;99.90;;;;;;4939367;29;20435;-65
2023/12/13 10:19:08;;;;;;;0.30;0.30;;;10.60;99.90;;;;;;4939597;29;20901;-65
2023/12/13 10:21:34;;;;;;;4.63;0.83;;;10.60;99.90;;;;;;4939487;29;20479;-64
2023/12/13 10:24:01;;;;;;;0.30;0.30;;;10.60;99.90;;;;;;4921860;29;20424;-65
2023/12/13 10:26:26;;;;;;;0.40;0.40;;;10.50;99.90;;;;;;4939379;29;21009;-64
2023/12/13 10:28:53;;;;;;;0.50;0.50;;;10.60;99.90;;;;;;4931460;29;20515;-66
2023/12/13 10:31:21;;;;;;;0.30;0.30;;;10.50;99.90;;;;;;4920575;29;20600;-64
2023/12/13 10:33:47;;;;;;;0.30;0.20;;;10.50;99.90;;;;;;4920476;29;20430;-65
2023/12/13 10:36:14;;;;;;;0.30;0.30;;;10.50;99.90;;;;;;4920104;29;20208;-64
2023/12/13 10:38:40;;;;;;;0.40;0.40;;;10.50;99.90;;;;;;4920221;29;20179;-64
2023/12/13 10:41:07;;;;;;;0.30;0.30;;;10.50;99.90;;;;;;4920393;29;20228;-65
2023/12/13 10:43:34;;;;;;;0.30;0.27;;;10.50;99.90;;;;;;4926606;29;20418;-64
2023/12/13 10:46:01;;;;;;;0.30;0.30;;;10.60;99.90;;;;;;4938794;29;20913;-66
2023/12/13 10:48:37;;;;;;;0.30;0.20;;;10.50;99.90;;;;;;4939211;29;20274;-64
2023/12/13 10:51:04;;;;;;;0.30;0.30;;;10.60;99.90;;;;;;4939157;29;20598;-64
2023/12/13 10:53:32;;;;;;;0.30;0.30;;;10.60;99.90;;;;;;4939010;29;20559;-65
2023/12/13 10:55:59;;;;;;;0.30;0.30;;;10.80;99.90;;;;;;4938514;29;20443;-66
2023/12/13 10:58:26;;;;;;;0.30;0.20;;;11.00;99.90;;;;;;4930935;29;20447;-65
2023/12/13 11:00:53;;;;;;;0.30;0.30;;;11.30;99.90;;;;;;4919950;29;20414;-66
2023/12/13 11:03:49;;;;;;;0.30;0.30;;;11.60;99.90;;;;;;4919834;29;20425;-65
2023/12/13 11:06:16;;;;;;;0.30;0.20;;;12.00;99.90;;;;;;4900381;29;20562;-63
2023/12/13 11:08:46;;;;;;;0.30;0.30;;;12.30;99.90;;;;;;4900857;29;20431;-66
2023/12/13 11:11:13;;;;;;;0.30;0.23;;;12.40;99.90;;;;;;4900846;29;20454;-65
2023/12/13 11:13:50;;;;;;;0.30;0.30;;;12.40;99.90;;;;;;4900844;29;20381;-65
2023/12/13 11:16:22;;;;;;;0.30;0.30;;;12.40;99.90;;;;;;4900255;29;20439;-65
2023/12/13 11:18:51;;;;;;;0.30;0.30;;;12.30;99.90;;;;;;4903205;29;20943;-66
2023/12/13 11:21:28;;;;;;;0.30;0.30;;;12.20;99.90;;;;;;4919432;29;20920;-64
2023/12/13 11:23:54;;;;;;;0.40;0.40;;;12.20;99.90;;;;;;4919381;29;20996;-66
2023/12/13 11:26:22;;;;;;;0.30;0.30;;;12.40;99.90;;;;;;4919420;29;20465;-65
2023/12/13 11:28:50;;;;;;;0.30;0.20;;;12.60;99.90;;;;;;4919225;29;20422;-66
2023/12/13 11:31:22;;;;;;;0.30;0.30;;;12.70;99.90;;;;;;4919317;29;21044;-66
2023/12/13 11:33:57;;;;;;;0.30;0.30;;;12.80;99.90;;;;;;4923414;29;20420;-65
2023/12/13 11:36:25;;;;;;;0.30;0.20;;;12.90;99.90;;;;;;4937967;29;20437;-64
2023/12/13 11:38:52;;;;;;;0.30;0.30;;;12.90;99.90;;;;;;4938347;29;20548;-65
2023/12/13 11:41:18;;;;;;;0.30;0.30;;;12.80;99.90;;;;;;4938119;29;20409;-66
2023/12/13 11:43:45;;;;;;;0.40;0.40;;;12.80;99.90;;;;;;4938080;29;20752;-65
2023/12/13 11:46:11;;;;;;;0.30;0.30;;;12.70;99.90;;;;;;4937733;29;20510;-66
2023/12/13 11:48:37;;;;;;;0.30;0.27;;;12.70;99.90;;;;;;4920626;29;20811;-66
2023/12/13 11:51:03;;;;;;;0.30;0.30;;;12.80;99.90;;;;;;4919222;29;20457;-65
2023/12/13 11:53:29;;;;;;;0.30;0.20;;;12.70;99.90;;;;;;4918989;29;20925;-65
2023/12/13 11:55:56;;;;;;;0.30;0.30;;;12.60;99.90;;;;;;4918389;29;20201;-64
2023/12/13 11:58:22;;;;;;;0.30;0.30;;;12.60;99.90;;;;;;4918781;29;20185;-64
2023/12/13 12:00:47;;;;;;;0.30;0.30;;;12.50;99.90;;;;;;4918883;29;20405;-67
2023/12/13 12:03:13;;;;;;;0.30;0.20;;;12.40;99.90;;;;;;4934603;29;20272;-66
2023/12/13 12:05:42;;;;;;;0.40;0.40;;;12.30;99.90;;;;;;4925122;29;20334;-67
2023/12/13 12:08:08;;;;;;;0.30;0.20;;;12.20;99.90;;;;;;4918266;29;20441;-65
2023/12/13 12:10:34;;;;;;;0.30;0.20;;;12.10;99.90;;;;;;4918732;29;20827;-67
2023/12/13 12:13:01;;;;;;;0.30;0.30;;;12.10;99.90;;;;;;4918581;29;20412;-65
2023/12/13 12:15:27;;;;;;;0.40;0.40;;;12.00;99.90;;;;;;4918127;29;20519;-65
2023/12/13 12:17:56;;;;;;;0.40;0.40;;;12.00;99.90;;;;;;4933618;29;20510;-64
2023/12/13 12:20:24;;;;;;;0.30;0.20;;;12.10;99.90;;;;;;4937549;29;20424;-66
2023/12/13 12:22:50;;;;;;;0.30;0.20;;;12.20;99.90;;;;;;4937898;29;20897;-65
2023/12/13 12:25:17;;;;;;;0.30;0.30;;;12.30;99.90;;;;;;4936898;29;20462;-66
2023/12/13 12:27:48;;;;;;;0.30;0.20;;;12.40;99.90;;;;;;4937557;29;20856;-67
2023/12/13 12:30:17;;;;;;;0.30;0.20;;;12.60;99.90;;;;;;4932507;29;20569;-65
2023/12/13 12:32:43;;;;;;;0.30;0.20;;;12.70;99.90;;;;;;4918381;29;20562;-65
2023/12/13 12:35:09;;;;;;;0.30;0.20;;;12.80;99.90;;;;;;4917267;29;20441;-65
2023/12/13 12:37:35;;;;;;;0.30;0.20;;;12.80;99.90;;;;;;4918329;29;20425;-66
2023/12/13 12:40:03;;;;;;;0.30;0.20;;;12.70;99.90;;;;;;4918700;29;20178;-64
2023/12/13 12:42:28;;;;;;;0.30;0.30;;;12.70;99.90;;;;;;4918228;29;20754;-67
2023/12/13 12:44:54;;;;;;;0.30;0.30;;;12.70;99.90;;;;;;4917637;29;20421;-68
2023/12/13 12:47:20;;;;;;;0.30;0.30;;;12.70;99.90;;;;;;4918003;29;20901;-67
2023/12/13 12:49:47;;;;;;;0.30;0.20;;;12.70;99.90;;;;;;4917824;29;20742;-66
2023/12/13 12:52:13;;;;;;;0.33;0.33;;;12.60;99.90;;;;;;4917982;29;20298;-66
2023/12/13 12:54:38;;;;;;;0.30;0.30;;;12.60;99.90;;;;;;4917543;29;20961;-63
2023/12/13 12:57:04;;;;;;;0.30;0.30;;;12.50;99.90;;;;;;4917877;29;20198;-67
2023/12/13 12:59:30;;;;;;;0.30;0.30;;;12.50;99.90;;;;;;4925896;29;20662;-65
2023/12/13 13:01:55;;;;;;;0.30;0.30;;;12.50;99.90;;;;;;4936282;29;20547;-65
2023/12/13 13:04:21;;;;;;;0.30;0.30;;;12.50;99.90;;;;;;4936379;29;20187;-66
2023/12/13 13:06:47;;;;;;;0.30;0.30;;;12.60;99.90;;;;;;4919359;29;20456;-65
2023/12/13 13:09:13;;;;;;;0.30;0.30;;;12.70;99.90;;;;;;4936675;29;20196;-65
2023/12/13 13:11:38;;;;;;;0.30;0.20;;;12.80;99.90;;;;;;4936523;29;20470;-64
2023/12/13 13:14:04;;;;;;;0.30;0.20;;;12.80;99.90;;;;;;4926711;29;20513;-69
2023/12/13 13:16:32;;;;;;;0.30;0.30;;;12.90;99.90;;;;;;4922070;29;20199;-67
2023/12/13 13:18:58;;;;;;;0.30;0.30;;;12.90;99.90;;;;;;4917135;29;20552;-66
2023/12/13 13:21:24;;;;;;;0.30;0.30;;;12.90;99.90;;;;;;4928505;29;20426;-64
2023/12/13 13:23:50;;;;;;;0.30;0.20;;;12.90;99.90;;;;;;4916871;29;20428;-64
2023/12/13 13:26:16;;;;;;;0.30;0.30;;;12.80;99.90;;;;;;4917801;29;20702;-67
2023/12/13 13:28:41;;;;;;;0.30;0.30;;;12.60;99.90;;;;;;4923918;29;20468;-66
2023/12/13 13:31:07;;;;;;;0.30;0.20;;;12.50;99.90;;;;;;4925012;29;20201;-67
2023/12/13 13:33:33;;;;;;;0.30;0.30;;;12.30;99.90;;;;;;4916587;29;20181;-67
2023/12/13 13:35:58;;;;;;;0.30;0.30;;;12.10;99.90;;;;;;4915995;29;20453;-67
2023/12/13 13:38:24;;;;;;;0.30;0.30;;;12.00;99.90;;;;;;4917156;29;20188;-65
2023/12/13 13:40:49;;;;;;;0.30;0.20;;;11.80;99.90;;;;;;4917298;29;20188;-65
2023/12/13 13:43:15;;;;;;;0.30;0.20;;;11.70;99.90;;;;;;4917437;29;20625;-65
2023/12/13 13:45:41;;;;;;;0.30;0.20;;;11.60;99.90;;;;;;4929406;29;20330;-64
2023/12/13 13:48:06;;;;;;;0.40;0.40;;;11.50;99.90;;;;;;4935018;29;20179;-63
2023/12/13 13:50:32;;;;;;;0.30;0.30;;;11.40;99.90;;;;;;4936061;29;20321;-66
2023/12/13 13:52:59;;;;;;;0.30;0.30;;;11.20;99.90;;;;;;4936281;29;20180;-65
2023/12/13 13:55:25;;;;;;;0.30;0.30;;;10.90;99.90;;;;;;4935473;29;20184;-64
2023/12/13 13:57:51;;;;;;;0.30;0.30;;;10.50;99.90;;;;;;4936091;29;20231;-64
2023/12/13 14:00:20;;;;;;;0.30;0.30;;;10.00;99.90;;;;;;4924063;29;20183;-65
2023/12/13 14:02:45;;;;;;;0.30;0.30;;;9.60;99.90;;;;;;4917089;29;20589;-64
2023/12/13 14:05:12;;;;;;;0.30;0.30;;;9.20;99.90;;;;;;4916898;29;20233;-64
2023/12/13 14:07:39;;;;;;;0.30;0.28;;;8.90;99.90;;;;;;4917071;29;20198;-65
2023/12/13 14:10:06;;;;;;;0.30;0.30;;;8.60;99.90;;;;;;4916711;29;20202;-62
2023/12/13 14:12:31;;;;;;;0.35;0.35;;;8.40;99.90;;;;;;4916899;29;20175;-63
2023/12/13 14:14:57;;;;;;;0.30;0.30;;;8.30;99.90;;;;;;4917985;29;20663;-61
2023/12/13 14:17:26;;;;;;;0.40;0.40;;;8.20;99.90;;;;;;4916678;29;20581;-62
2023/12/13 14:19:51;;;;;;;0.30;0.28;;;8.10;99.90;;;;;;4917005;29;20307;-61
2023/12/13 14:22:17;;;;;;;0.30;0.30;;;8.10;99.90;;;;;;4916954;29;20204;-61
2023/12/13 14:24:43;;;;;;;0.30;0.30;;;8.00;99.90;;;;;;4916432;29;20186;-63
2023/12/13 14:27:09;;;;;;;0.30;0.30;;;8.00;99.90;;;;;;4929684;29;20321;-61
2023/12/13 14:29:35;;;;;;;0.30;0.30;;;8.00;99.90;;;;;;4935443;29;20257;-63
2023/12/13 14:32:01;;;;;;;0.30;0.30;;;8.00;99.90;;;;;;4935377;29;20177;-63
2023/12/13 14:34:26;;;;;;;0.30;0.30;;;8.00;99.90;;;;;;4935047;29;20176;-64
2023/12/13 14:36:52;;;;;;;0.30;0.30;;;8.00;99.90;;;;;;4935752;29;20307;-62
2023/12/13 14:39:18;;;;;;;0.30;0.30;;;8.00;99.90;;;;;;4935964;29;20269;-62
2023/12/13 14:41:43;;;;;;;0.30;0.30;;;8.00;99.90;;;;;;4934054;29;20178;-61
2023/12/13 14:44:09;;;;;;;0.30;0.30;;;8.00;99.90;;;;;;4916360;29;20514;-64
2023/12/13 14:46:36;;;;;;;0.40;0.40;;;8.00;99.90;;;;;;4916502;29;20194;-64
2023/12/13 14:49:02;;;;;;;0.30;0.30;;;8.00;99.90;;;;;;4916566;29;20174;-63
2023/12/13 14:51:28;;;;;;;0.30;0.20;;;8.10;99.90;;;;;;4916408;29;20194;-61
2023/12/13 14:53:56;;;;;;;0.30;0.30;;;8.10;99.90;;;;;;4916469;29;20712;-63
2023/12/13 14:56:22;;;;;;;0.30;0.30;;;8.10;99.90;;;;;;4923858;29;20200;-61
2023/12/13 14:58:48;;;;;;;0.30;0.30;;;8.10;99.90;;;;;;4936397;29;20183;-61
2023/12/13 15:01:13;;;;;;;0.40;0.40;;;8.10;99.90;;;;;;4938826;29;20173;-63
2023/12/13 15:03:39;;;;;;;0.30;0.30;;;8.10;99.90;;;;;;4921915;29;20173;-63
2023/12/13 15:06:08;;;;;;;0.30;0.30;;;8.10;99.90;;;;;;4938499;29;20201;-61
2023/12/13 15:08:34;;;;;;;0.30;0.30;;;8.10;99.90;;;;;;4921663;29;20189;-63
2023/12/13 15:11:00;;;;;;;0.30;0.30;;;8.10;99.90;;;;;;4935963;29;20563;-60
2023/12/13 15:13:27;;;;;;;0.30;0.30;;;8.10;99.90;;;;;;4938785;29;20169;-62
2023/12/13 15:15:53;;;;;;;0.75;0.75;;;8.10;99.90;;;;;;4938202;29;20284;-61
2023/12/13 15:18:20;;;;;;;0.30;0.30;;;8.00;99.90;;;;;;4938919;29;20260;-63
2023/12/13 15:20:45;;;;;;;0.30;0.30;;;8.00;99.90;;;;;;4938682;29;20413;-63
2023/12/13 15:23:11;;;;;;;0.37;0.37;;;8.00;99.90;;;;;;4914257;29;20178;-62
2023/12/13 15:25:37;;;;;;;0.30;0.30;;;8.00;99.90;;;;;;4918996;29;20201;-59
2023/12/13 15:28:05;;;;;;;0.30;0.30;;;8.00;99.90;;;;;;4919945;29;20185;-60
2023/12/13 15:30:31;;;;;;;0.30;0.30;;;8.00;99.90;;;;;;4919420;29;20456;-64
2023/12/13 15:32:56;;;;;;;0.30;0.30;;;8.00;99.90;;;;;;4919468;29;20621;-62
2023/12/13 15:35:22;;;;;;;0.30;0.30;;;8.00;99.90;;;;;;4919143;29;20204;-62
2023/12/13 15:37:48;;;;;;;0.30;0.30;;;8.00;99.90;;;;;;4924413;29;20536;-60
2023/12/13 15:40:14;;;;;;;0.20;0.20;;;8.00;99.90;;;;;;4921129;29;20181;-62
2023/12/13 15:42:40;;;;;;;0.40;0.40;;;8.00;99.90;;;;;;4938062;29;20261;-60
2023/12/13 15:45:07;;;;;;;0.33;0.33;;;8.00;99.90;;;;;;4937591;29;20286;-62
2023/12/13 15:47:33;;;;;;;0.30;0.30;;;8.00;99.90;;;;;;4938232;29;20185;-62
2023/12/13 15:49:59;;;;;;;0.30;0.30;;;8.00;99.90;;;;;;4937647;29;20208;-63
2023/12/13 15:52:24;;;;;;;0.33;0.33;;;8.10;99.90;;;;;;4933142;29;20178;-63
2023/12/13 15:54:50;;;;;;;0.40;0.40;;;8.00;99.90;;;;;;4924025;29;20859;-61
2023/12/13 15:57:15;;;;;;;0.30;0.30;;;8.00;99.90;;;;;;4937856;29;20178;-63
2023/12/13 15:59:41;;;;;;;0.30;0.30;;;8.00;99.90;;;;;;4920782;29;20174;-61
2023/12/13 16:02:07;;;;;;;0.30;0.30;;;8.00;99.90;;;;;;4937760;29;20632;-63
2023/12/13 16:04:35;;;;;;;0.33;0.33;;;8.10;99.90;;;;;;4937514;29;20517;-62
2023/12/13 16:07:01;;;;;;;0.30;0.30;;;8.00;99.90;;;;;;4934249;29;20210;-61
2023/12/13 16:09:26;;;;;;;0.30;0.30;;;8.00;99.90;;;;;;4918919;29;20692;-61
2023/12/13 16:11:52;;;;;;;0.30;0.30;;;7.90;99.90;;;;;;4934699;29;20457;-62
2023/12/13 16:14:18;;;;;;;0.80;0.80;;;7.90;99.90;;;;;;4937338;29;20279;-63
2023/12/13 16:16:43;;;;;;;0.30;0.30;;;7.90;99.90;;;;;;4931400;29;20198;-62
2023/12/13 16:19:09;;;;;;;0.30;0.30;;;7.90;99.90;;;;;;4918747;29;20238;-63
2023/12/13 16:21:34;;;;;;;0.30;0.30;;;7.90;99.90;;;;;;4926561;29;20181;-62
2023/12/13 16:24:03;;;;;;;0.33;0.33;;;7.80;99.90;;;;;;4937210;29;20185;-64
2023/12/13 16:26:29;;;;;;;0.40;0.40;;;7.80;99.90;;;;;;4937471;29;20217;-62
2023/12/13 16:28:54;;;;;;;0.40;0.40;;;7.90;99.90;;;;;;4926356;29;20186;-65
2023/12/13 16:31:20;;;;;;;0.30;0.30;;;7.80;99.90;;;;;;4928992;29;20216;-61
2023/12/13 16:33:45;;;;;;;0.30;0.30;;;7.80;99.90;;;;;;4922313;29;20180;-63
2023/12/13 16:36:11;;;;;;;0.30;0.30;;;7.80;99.90;;;;;;4930660;29;20541;-61
2023/12/13 16:38:37;;;;;;;0.30;0.30;;;7.80;99.90;;;;;;4933038;29;20186;-64
2023/12/13 16:41:02;;;;;;;0.40;0.40;;;7.80;99.90;;;;;;4917985;29;20190;-63
2023/12/13 16:43:28;;;;;;;0.30;0.30;;;7.80;99.90;;;;;;4918145;29;20688;-60
2023/12/13 16:45:53;;;;;;;0.30;0.30;;;7.80;99.90;;;;;;4918440;29;20201;-62
2023/12/13 16:48:19;;;;;;;0.40;0.40;;;7.80;99.90;;;;;;4902033;29;20186;-62
2023/12/13 16:50:45;;;;;;;0.30;0.30;;;7.80;99.90;;;;;;4926267;29;20205;-64
2023/12/13 16:53:11;;;;;;;0.30;0.30;;;7.80;99.90;;;;;;4920866;29;20422;-63
2023/12/13 16:55:37;;;;;;;0.30;0.30;;;7.80;99.90;;;;;;4903793;29;20202;-61
2023/12/13 16:58:03;;;;;;;0.30;0.30;;;7.80;99.90;;;;;;4918221;29;20687;-63
2023/12/13 17:00:29;;;;;;;0.30;0.30;;;7.80;99.90;;;;;;4924850;29;20548;-60
2023/12/13 17:02:58;;;;;;;0.30;0.30;;;7.80;99.90;;;;;;4921049;29;20178;-62
2023/12/13 17:05:26;;;;;;;0.30;0.30;;;7.80;99.90;;;;;;4931602;29;20211;-61
2023/12/13 17:07:52;;;;;;;0.30;0.30;;;7.80;99.90;;;;;;4919611;29;20281;-63
2023/12/13 17:10:18;;;;;;;0.30;0.30;;;7.70;99.90;;;;;;4936707;29;20209;-62
2023/12/13 17:12:44;;;;;;;0.30;0.30;;;7.70;99.90;;;;;;4919713;29;20765;-62
2023/12/13 17:15:11;;;;;;;0.30;0.30;;;7.70;99.90;;;;;;4936317;29;20456;-64
2023/12/13 17:17:41;;;;;;;0.30;0.30;;;7.80;99.90;;;;;;4925001;29;20189;-65
2023/12/13 17:20:07;;;;;;;0.50;0.50;;;7.70;99.90;;;;;;4917318;29;20178;-67
2023/12/13 17:22:33;;;;;;;0.60;0.60;;;7.80;99.90;;;;;;4917890;29;20190;-62
2023/12/13 17:25:08;;;;;;;0.30;0.30;;;7.70;99.90;;;;;;4916713;29;20170;-64
2023/12/13 17:27:34;;;;;;;0.30;0.30;;;7.80;99.90;;;;;;4917426;29;20189;-64
2023/12/13 17:30:02;;;;;;;0.30;0.30;;;7.70;99.90;;;;;;4917403;29;20667;-66
2023/12/13 17:32:30;;;;;;;0.30;0.30;;;7.70;99.90;;;;;;4917539;29;20186;-65
2023/12/13 17:34:56;;;;;;;0.30;0.30;;;7.70;99.90;;;;;;4916752;29;20656;-62
2023/12/13 17:37:22;;;;;;;0.30;0.30;;;7.60;99.90;;;;;;4916878;29;20245;-60
2023/12/13 17:39:48;;;;;;;0.30;0.30;;;7.60;99.90;;;;;;4917357;29;20706;-64
2023/12/13 17:42:13;;;;;;;0.30;0.30;;;7.60;99.90;;;;;;4917306;29;20186;-62
2023/12/13 17:44:39;;;;;;;0.40;0.40;;;7.60;99.90;;;;;;4916753;29;20174;-68
2023/12/13 17:47:06;;;;;;;0.30;0.30;;;7.60;99.90;;;;;;4917111;29;20244;-63
2023/12/13 17:49:36;;;;;;;0.32;0.32;;;7.60;99.90;;;;;;4917006;29;20206;-61
2023/12/13 17:52:07;;;;;;;0.30;0.30;;;7.60;99.90;;;;;;4917199;29;20612;-60
2023/12/13 17:54:33;;;;;;;0.30;0.30;;;7.60;99.90;;;;;;4925647;29;20317;-65